Richardson, TX (75082)

01:52 AM CDT del 28 Agosto 2016 (GMT -0500)
WOODS OF SPRINGCREEK | | Change Station

Alt. 600 ft 33.00 °N, 96.66 °W | Updated 18 seconds ago

Clear
Sereno
77.7 °F
Sembra 80 °F
N
0.0
Vento Variabile Vento da SO
Gusts 0.0 mph

Oggi
Massima -- | Minima -- °F
--% Possibilità di precip.
Ieri
Massima -- | Minima -- °F
Precip. -- in
Pressione 30.05 in
Visibilità 10.0 miglia
Nuvole Sereno
Indice di calore 80 °F
Punto di rugiada 72 °F
Umidità 84%
Piovosità 0.00 in
Spessore del manto nevoso Non disponibile.
6:58 AM 7:56 PM
Luna calante, 18% visible
METAR KADS 280635Z AUTO 16009KT 10SM CLR 27/23 A3005 RMK AO2 T02650233
Pressione 30.05 in
Visibilità 10.0 miglia
Nuvole Sereno
Indice di calore 80 °F
Punto di rugiada 72 °F
Umidità 84%
Piovosità 0.00 in
Spessore del manto nevoso Non disponibile.
6:58 AM 7:56 PM
Luna calante, 18% visible
METAR KADS 280635Z AUTO 16009KT 10SM CLR 27/23 A3005 RMK AO2 T02650233

10-Day Weather Forecast

Almanac

Astronomia

Aug. 28, 2016 Alba Tramonto
Ora attuale
Crepuscolo civile
Crepuscolo nautico
Crepuscolo astronomico
Luna
Estensione della luce visibile
Lunghezza del giorno
Tomorrow will be .
, % of the Moon is Illuminated

Gli estremi di oggi

State Highs State Lows

Community

WunderPhotos

Upload Photos

1,935,533 foto caricate!

WunderBlog® & News

Nearby

Qualità dell'aria

  Qualità dell'aria Indice AQ Inquinante
Not available.

Profondità neve

Stazione Profondità Altitudine

Attività sismica

Città  Distanza Mag. Data & Ora
Minimo Magnitudo Mostrato è 2.5.

Temperature delle acque costiere

Località Temperatura

Stations

Stazioni meteo nelle vicinanze

Ubicazione della stazione Temp. Raffreddamento del vento Punto di rugiada Umidità Vento Precip. Alt. Aggiornato Tipo
                   

Watches & Warnings

There are currently no watches in effect.